Time;durP1;ratioP1;P1;durP2;ratioP2;P2;SDS_P1;SDS_P2;PMS_P1;PMS_P2;Temp;Humidity;BMP_temperature;BMP_pressure;BME280_temperature;BME280_humidity;BME280_pressure;Samples;Min_cycle;Max_cycle;Signal;HPM_P1;HPM_P2
2023/12/29 00:01:32;;;;;;;23.07;12.58;;;;;;;3.32;89.65;99970.80;1652434;85;25491;-51
2023/12/29 00:03:58;;;;;;;40.08;22.80;;;;;;;3.29;89.79;99970.81;1642470;86;25481;-51
2023/12/29 00:06:25;;;;;;;111.30;73.00;;;;;;;3.26;90.26;99966.54;1666239;86;25614;-51
2023/12/29 00:08:51;;;;;;;25.27;15.40;;;;;;;3.24;90.39;99961.45;1666289;86;25575;-52
2023/12/29 00:11:21;;;;;;;23.40;12.10;;;;;;;3.24;90.23;99960.12;1666238;86;27344;-51
2023/12/29 00:13:48;;;;;;;24.32;12.15;;;;;;;3.21;90.35;99959.31;1666169;86;25785;-52
2023/12/29 00:16:17;;;;;;;27.02;12.30;;;;;;;3.16;90.59;99957.44;1666253;86;25612;-53
2023/12/29 00:18:43;;;;;;;;;;;;;;;3.15;90.67;99956.36;1668736;86;25723;-50
2023/12/29 00:21:10;;;;;;;19.52;12.60;;;;;;;3.13;90.96;99960.67;1666360;86;25622;-51
2023/12/29 00:23:36;;;;;;;22.25;12.73;;;;;;;3.08;91.04;99958.00;1666263;86;27348;-53
2023/12/29 00:26:03;;;;;;;22.27;11.90;;;;;;;3.07;91.19;99956.37;1666177;86;25534;-51
2023/12/29 00:28:30;;;;;;;22.62;12.13;;;;;;;3.06;91.57;99961.98;1666281;86;25497;-51
2023/12/29 00:30:56;;;;;;;25.50;12.00;;;;;;;3.05;91.83;99963.87;1666203;86;25614;-51
2023/12/29 00:33:23;;;;;;;23.32;11.95;;;;;;;3.05;91.91;99963.05;1666307;86;25499;-51
2023/12/29 00:35:49;;;;;;;20.97;12.23;;;;;;;3.04;92.18;99958.78;1711657;83;27326;-51
2023/12/29 00:38:15;;;;;;;20.55;11.63;;;;;;;3.06;92.33;99956.64;1700539;84;25740;-50
2023/12/29 00:40:42;;;;;;;22.00;11.43;;;;;;;3.07;92.44;99955.59;1675873;85;25440;-51
2023/12/29 00:43:08;;;;;;;23.02;11.75;;;;;;;3.07;92.61;99956.37;1692653;84;26148;-51
2023/12/29 00:45:35;;;;;;;22.17;12.55;;;;;;;3.08;92.64;99953.98;1647069;87;25431;-51
2023/12/29 00:48:03;;;;;;;24.32;13.22;;;;;;;3.07;92.55;99955.59;1630950;85;27927;-51
2023/12/29 00:50:30;;;;;;;22.32;13.03;;;;;;;3.06;92.60;99956.09;1692609;84;25617;-50
2023/12/29 00:52:56;;;;;;;18.52;11.73;;;;;;;3.05;92.73;99953.17;1646417;87;25633;-51
2023/12/29 00:55:22;;;;;;;23.52;12.00;;;;;;;3.06;92.84;99951.30;1646905;87;26281;-54
2023/12/29 00:57:48;;;;;;;19.75;11.33;;;;;;;3.04;92.66;99950.23;1647086;87;25508;-53
2023/12/29 01:00:15;;;;;;;20.32;11.90;;;;;;;3.01;92.72;99957.44;1670620;84;27438;-50
2023/12/29 01:02:41;;;;;;;19.77;11.95;;;;;;;3.02;92.86;99959.05;1623118;87;25480;-51
2023/12/29 01:05:08;;;;;;;22.15;12.07;;;;;;;3.01;92.85;99947.28;1649980;85;25486;-51
2023/12/29 01:07:34;;;;;;;20.40;11.68;;;;;;;2.99;92.93;99952.89;1670650;84;26322;-51
2023/12/29 01:10:01;;;;;;;24.15;12.43;;;;;;;2.98;93.28;99955.31;1675940;85;25496;-52
2023/12/29 01:12:27;;;;;;;19.98;12.28;;;;;;;2.96;93.29;99954.25;1630673;85;27406;-51
2023/12/29 01:14:53;;;;;;;22.80;11.73;;;;;;;2.94;93.38;99938.98;1692593;84;25466;-51
2023/12/29 01:17:23;;;;;;;20.62;11.95;;;;;;;2.93;93.45;99946.76;1647047;87;25507;-51
2023/12/29 01:19:52;;;;;;;18.07;11.33;;;;;;;2.90;93.34;99945.95;1689426;84;25649;-52
2023/12/29 01:22:18;;;;;;;22.90;12.37;;;;;;;2.90;93.37;99942.48;1647133;87;25491;-52
2023/12/29 01:24:45;;;;;;;22.07;12.63;;;;;;;2.89;93.49;99942.20;1675939;85;28059;-53
2023/12/29 01:27:12;;;;;;;23.50;12.23;;;;;;;2.86;93.66;99936.88;1675838;85;25480;-53
2023/12/29 01:29:38;;;;;;;23.70;13.43;;;;;;;2.86;93.84;99937.39;1646806;84;25483;-51
2023/12/29 01:32:07;;;;;;;25.12;12.37;;;;;;;2.85;93.76;99935.80;1646997;87;25610;-54
2023/12/29 01:34:34;;;;;;;21.97;12.88;;;;;;;2.84;94.13;99933.64;1647201;87;25493;-54
2023/12/29 01:37:03;;;;;;;20.45;11.70;;;;;;;2.83;93.90;99932.05;1692670;84;27424;-51
2023/12/29 01:39:30;;;;;;;23.07;12.05;;;;;;;2.79;93.93;99927.78;1690497;84;25431;-50
2023/12/29 01:41:56;;;;;;;22.77;12.35;;;;;;;2.78;93.83;99925.37;1690448;84;25472;-51
2023/12/29 01:44:23;;;;;;;19.92;12.33;;;;;;;2.75;94.04;99918.68;1690385;84;25693;-51
2023/12/29 01:46:52;;;;;;;19.70;11.95;;;;;;;2.71;94.00;99914.16;1645681;84;25464;-51
2023/12/29 01:49:20;;;;;;;21.90;12.65;;;;;;;2.71;93.92;99911.48;1668799;84;27898;-51
2023/12/29 01:51:54;;;;;;;21.23;12.18;;;;;;;2.68;94.08;99906.67;1690546;84;25425;-50
2023/12/29 01:54:24;;;;;;;21.62;12.55;;;;;;;2.67;94.20;99895.16;1690225;84;25458;-51
2023/12/29 01:56:50;;;;;;;;;;;;;;;2.66;94.41;99890.11;1670682;84;25417;-52
2023/12/29 01:59:17;;;;;;;22.55;12.28;;;;;;;2.64;94.46;99893.05;1667153;84;25421;-52
2023/12/29 02:01:45;;;;;;;24.00;13.30;;;;;;;2.63;94.37;99890.64;1668115;84;27998;-51
2023/12/29 02:04:13;;;;;;;21.77;13.45;;;;;;;2.60;94.50;99883.41;1668414;84;25599;-51
2023/12/29 02:06:40;;;;;;;22.58;12.63;;;;;;;2.59;94.62;99881.03;1690423;84;25398;-51
2023/12/29 02:09:06;;;;;;;21.55;12.73;;;;;;;2.59;94.69;99877.02;1690379;84;25724;-52
2023/12/29 02:11:33;;;;;;;23.80;12.55;;;;;;;2.58;94.69;99874.08;1690419;84;25399;-53
2023/12/29 02:14:00;;;;;;;22.93;12.70;;;;;;;2.55;94.53;99865.25;1690410;84;27345;-50
2023/12/29 02:16:48;;;;;;;22.37;12.15;;;;;;;2.53;94.63;99861.52;1690413;84;25478;-52
2023/12/29 02:19:23;;;;;;;22.30;12.45;;;;;;;2.49;94.64;99851.11;1690407;84;25442;-51
2023/12/29 02:21:50;;;;;;;24.85;13.70;;;;;;;2.46;94.51;99847.63;1690379;84;26128;-50
2023/12/29 02:24:16;;;;;;;25.17;13.78;;;;;;;2.43;94.89;99846.81;1690418;84;25439;-50
2023/12/29 02:26:48;;;;;;;24.60;14.20;;;;;;;2.44;95.36;99844.43;1690395;84;27893;-52
2023/12/29 02:29:18;;;;;;;23.35;13.40;;;;;;;2.43;95.16;99844.15;1690348;84;25407;-50
2023/12/29 02:31:47;;;;;;;23.75;12.95;;;;;;;2.40;95.21;99844.16;1668239;84;25411;-50
2023/12/29 02:34:15;;;;;;;24.40;13.38;;;;;;;2.40;95.24;99842.83;1690352;84;26309;-50
2023/12/29 02:36:43;;;;;;;23.12;13.15;;;;;;;2.39;95.24;99843.88;1690429;84;25452;-49
2023/12/29 02:39:11;;;;;;;23.00;13.50;;;;;;;2.39;95.54;99837.75;1690390;84;27396;-49
2023/12/29 02:41:39;;;;;;;28.05;14.30;;;;;;;2.40;95.99;99839.33;1692542;84;25577;-50
2023/12/29 02:44:05;;;;;;;27.17;14.20;;;;;;;2.41;96.20;99832.40;1668013;84;25428;-49
2023/12/29 02:46:32;;;;;;;25.55;14.18;;;;;;;2.41;95.96;99831.06;1691081;84;25576;-52
2023/12/29 02:48:59;;;;;;;23.45;13.08;;;;;;;2.39;96.10;99829.20;1663676;85;25488;-51
2023/12/29 02:51:25;;;;;;;23.77;14.10;;;;;;;2.39;96.30;99830.53;1686750;84;27299;-50
2023/12/29 02:53:52;;;;;;;23.30;14.05;;;;;;;2.40;96.37;99825.98;1663803;85;25661;-51
2023/12/29 02:56:18;;;;;;;27.05;13.88;;;;;;;2.39;96.32;99821.19;1687545;85;25480;-49
2023/12/29 02:58:45;;;;;;;25.50;14.35;;;;;;;2.38;96.25;99825.45;1687521;85;25479;-50
2023/12/29 03:01:12;;;;;;;23.98;14.20;;;;;;;2.36;96.11;99824.93;1663962;85;25544;-50
2023/12/29 03:03:39;;;;;;;25.80;14.53;;;;;;;2.34;96.33;99821.19;1687547;85;27377;-49
2023/12/29 03:06:06;;;;;;;28.40;14.90;;;;;;;2.34;96.36;99824.40;1663907;85;25575;-50
2023/12/29 03:08:33;;;;;;;24.77;14.63;;;;;;;2.33;96.33;99834.80;1687530;84;25423;-51
2023/12/29 03:10:59;;;;;;;27.13;15.18;;;;;;;2.30;96.18;99832.14;1687518;85;25684;-51
2023/12/29 03:13:25;;;;;;;28.38;14.65;;;;;;;2.29;96.26;99840.41;1687534;85;25434;-50
2023/12/29 03:15:52;;;;;;;24.90;15.60;;;;;;;2.27;96.58;99831.33;1687548;85;27369;-53
2023/12/29 03:18:18;;;;;;;26.73;14.28;;;;;;;2.25;96.50;99838.80;1687456;85;25573;-50
2023/12/29 03:20:44;;;;;;;24.25;14.38;;;;;;;2.23;96.42;99827.05;1687542;85;25407;-50
2023/12/29 03:23:11;;;;;;;25.75;14.55;;;;;;;2.23;96.64;99823.56;1687523;85;25765;-49
2023/12/29 03:25:38;;;;;;;24.92;15.53;;;;;;;2.23;96.99;99819.56;1687552;85;25507;-49
2023/12/29 03:28:05;;;;;;;23.65;14.28;;;;;;;2.22;97.15;99821.44;1663793;85;27286;-52
2023/12/29 03:30:31;;;;;;;23.02;14.15;;;;;;;2.22;96.80;99814.77;1692175;84;25880;-50
2023/12/29 03:32:57;;;;;;;26.12;15.78;;;;;;;2.20;97.07;99808.11;1692231;84;25404;-50
2023/12/29 03:35:24;;;;;;;28.85;15.18;;;;;;;2.19;97.16;99815.29;1668213;84;25554;-49
2023/12/29 03:37:50;;;;;;;26.68;15.88;;;;;;;2.19;97.76;99820.63;1691572;84;25476;-52
2023/12/29 03:40:17;;;;;;;28.20;16.37;;;;;;;2.20;97.79;99820.91;1692257;84;27112;-50
2023/12/29 03:42:43;;;;;;;24.32;15.08;;;;;;;2.19;97.58;99822.50;1668249;84;25490;-51
2023/12/29 03:45:09;;;;;;;25.48;15.45;;;;;;;2.19;97.78;99816.63;1692249;84;25425;-51
2023/12/29 03:47:36;;;;;;;25.55;15.38;;;;;;;2.19;97.77;99814.50;1654369;85;25618;-50
2023/12/29 03:50:03;;;;;;;27.62;15.43;;;;;;;2.19;97.96;99808.62;1638283;86;25452;-51
2023/12/29 03:52:29;;;;;;;28.55;15.28;;;;;;;2.18;98.00;99809.70;1661389;86;27265;-51
2023/12/29 03:54:56;;;;;;;28.98;16.55;;;;;;;2.17;98.08;99805.42;1661323;86;25557;-52
2023/12/29 03:57:22;;;;;;;29.40;16.87;;;;;;;2.19;98.49;99810.50;1638044;86;25516;-50
2023/12/29 03:59:48;;;;;;;28.12;18.02;;;;;;;2.19;98.65;99811.83;1638212;86;25886;-51
2023/12/29 04:02:17;;;;;;;32.23;16.37;;;;;;;2.19;98.76;99808.62;1616714;86;25528;-51
2023/12/29 04:04:43;;;;;;;26.48;16.20;;;;;;;2.19;98.62;99810.50;1617382;88;27332;-50
2023/12/29 04:07:10;;;;;;;29.67;16.42;;;;;;;2.19;98.81;99799.82;1645108;87;25536;-50
2023/12/29 04:09:36;;;;;;;30.45;16.25;;;;;;;2.18;98.56;99807.03;1617396;88;25444;-51
2023/12/29 04:12:03;;;;;;;31.33;17.73;;;;;;;2.19;98.79;99802.48;1645147;87;25548;-51
2023/12/29 04:14:29;;;;;;;32.40;17.67;;;;;;;2.19;98.97;99807.83;1617417;88;25448;-50
2023/12/29 04:16:55;;;;;;;25.90;16.07;;;;;;;2.20;99.18;99800.10;1645180;87;27420;-50
2023/12/29 04:19:21;;;;;;;31.20;17.35;;;;;;;2.18;99.29;99795.03;1637944;86;25493;-49
2023/12/29 04:21:47;;;;;;;30.97;17.80;;;;;;;2.19;99.29;99803.28;1633041;87;25497;-49
2023/12/29 04:24:14;;;;;;;28.67;15.95;;;;;;;2.20;99.15;99792.09;1638089;86;26115;-50
2023/12/29 04:26:40;;;;;;;26.02;16.20;;;;;;;2.19;99.07;99791.27;1633090;87;25503;-50
2023/12/29 04:29:07;;;;;;;26.62;15.85;;;;;;;2.18;99.06;99788.36;1661391;86;27990;-51
2023/12/29 04:31:33;;;;;;;30.30;17.52;;;;;;;2.19;99.28;99796.61;1632909;87;25486;-49
2023/12/29 04:33:59;;;;;;;30.17;17.65;;;;;;;2.19;99.27;99788.61;1638205;86;25437;-51
2023/12/29 04:36:25;;;;;;;27.48;16.07;;;;;;;2.19;99.32;99787.27;1632988;87;25597;-53
2023/12/29 04:38:52;;;;;;;28.62;17.50;;;;;;;2.20;99.37;99779.55;1661380;86;25478;-52
2023/12/29 04:41:18;;;;;;;31.90;17.10;;;;;;;2.20;99.30;99774.20;1633000;87;27401;-50
2023/12/29 04:43:45;;;;;;;32.75;17.20;;;;;;;2.20;99.31;99780.87;1638016;86;25465;-50
2023/12/29 04:46:11;;;;;;;27.15;16.93;;;;;;;2.21;99.57;99771.00;1633019;87;25522;-50
2023/12/29 04:48:38;;;;;;;29.85;16.45;;;;;;;2.20;99.27;99772.08;1662391;84;25748;-54
2023/12/29 04:51:05;;;;;;;33.02;17.23;;;;;;;2.19;99.28;99777.93;1662831;86;25510;-50
2023/12/29 04:53:31;;;;;;;31.45;16.97;;;;;;;2.20;99.68;99779.55;1662781;86;26878;-51
2023/12/29 04:55:58;;;;;;;32.03;18.23;;;;;;;2.22;99.70;99773.95;1662725;86;25438;-50
2023/12/29 04:58:24;;;;;;;31.15;18.00;;;;;;;2.22;99.76;99777.41;1617859;86;25527;-51
2023/12/29 05:00:50;;;;;;;31.60;17.73;;;;;;;2.22;99.96;99780.62;1662779;86;26271;-50
2023/12/29 05:03:16;;;;;;;32.60;17.90;;;;;;;2.24;100.00;99779.81;1639659;86;25480;-51
2023/12/29 05:05:43;;;;;;;28.98;16.67;;;;;;;2.24;100.00;99779.27;1662795;86;27951;-53
2023/12/29 05:08:09;;;;;;;30.25;17.48;;;;;;;2.24;100.00;99780.60;1662747;86;25436;-51
2023/12/29 05:10:36;;;;;;;29.63;17.60;;;;;;;2.26;100.00;99776.88;1639735;86;25488;-54
2023/12/29 05:13:03;;;;;;;31.48;18.15;;;;;;;2.25;100.00;99780.09;1639917;86;26334;-51
2023/12/29 05:15:29;;;;;;;30.20;17.65;;;;;;;2.24;100.00;99771.27;1662838;86;25496;-52
2023/12/29 05:17:56;;;;;;;29.45;17.10;;;;;;;2.29;100.00;99786.48;1639682;86;28109;-51
2023/12/29 05:20:22;;;;;;;32.23;17.73;;;;;;;2.31;100.00;99778.22;1662789;86;25176;-54
2023/12/29 05:22:48;;;;;;;31.93;19.15;;;;;;;2.34;100.00;99772.35;1662834;86;25450;-52
2023/12/29 05:25:15;;;;;;;32.85;17.42;;;;;;;2.35;100.00;99769.42;1662787;86;25691;-51
2023/12/29 05:27:41;;;;;;;32.33;18.25;;;;;;;2.39;100.00;99757.67;1662872;86;25446;-50
2023/12/29 05:30:08;;;;;;;33.33;18.35;;;;;;;2.41;100.00;99756.86;1662798;86;27319;-50
2023/12/29 05:32:35;;;;;;;35.48;18.40;;;;;;;2.43;100.00;99756.87;1662689;86;25428;-50
2023/12/29 05:35:01;;;;;;;32.53;17.65;;;;;;;2.47;100.00;99757.65;1639599;86;25455;-50
2023/12/29 05:37:27;;;;;;;33.48;17.92;;;;;;;2.50;100.00;99757.91;1639633;86;26257;-52
2023/12/29 05:39:53;;;;;;;31.15;16.97;;;;;;;2.55;100.00;99764.59;1662822;86;25430;-50
2023/12/29 05:42:20;;;;;;;28.80;17.23;;;;;;;2.59;100.00;99760.88;1662778;86;27479;-51
2023/12/29 05:44:46;;;;;;;31.45;17.75;;;;;;;2.63;100.00;99769.14;1639698;86;25536;-50
2023/12/29 05:47:12;;;;;;;34.98;18.62;;;;;;;2.66;100.00;99764.61;1662762;84;25478;-53
2023/12/29 05:49:39;;;;;;;26.57;16.73;;;;;;;2.69;100.00;99762.20;1662754;85;25601;-51
2023/12/29 05:52:06;;;;;;;29.12;16.70;;;;;;;2.72;100.00;99758.95;1662792;86;25437;-54
2023/12/29 05:54:32;;;;;;;28.92;16.87;;;;;;;2.76;100.00;99763.25;1662782;86;27351;-51
2023/12/29 05:56:58;;;;;;;28.52;16.82;;;;;;;2.79;100.00;99764.02;1662705;86;25568;-53
2023/12/29 05:59:25;;;;;;;31.97;17.07;;;;;;;2.80;100.00;99757.08;1639538;86;25522;-53
2023/12/29 06:01:51;;;;;;;28.32;16.75;;;;;;;2.85;100.00;99764.84;1662738;86;25619;-53
2023/12/29 06:04:17;;;;;;;23.83;15.60;;;;;;;2.87;100.00;99762.69;1662810;85;25556;-51
2023/12/29 06:06:43;;;;;;;26.42;16.52;;;;;;;2.88;100.00;99763.76;1662787;86;27417;-52
2023/12/29 06:09:10;;;;;;;31.73;17.32;;;;;;;2.90;100.00;99760.82;1639577;86;25530;-54
2023/12/29 06:11:37;;;;;;;30.35;17.20;;;;;;;2.90;100.00;99760.27;1662777;86;25494;-54
2023/12/29 06:14:04;;;;;;;30.40;16.05;;;;;;;2.91;100.00;99753.88;1639701;86;25623;-51
2023/12/29 06:16:30;;;;;;;27.13;15.35;;;;;;;2.94;100.00;99749.30;1662801;86;25483;-51
2023/12/29 06:18:56;;;;;;;28.95;16.80;;;;;;;2.94;100.00;99735.94;1662443;86;27297;-51
2023/12/29 06:21:23;;;;;;;29.07;15.88;;;;;;;2.97;100.00;99744.75;1609483;88;26008;-50
2023/12/29 06:23:49;;;;;;;28.85;15.85;;;;;;;2.98;100.00;99744.24;1662072;86;25596;-53
2023/12/29 06:26:20;;;;;;;30.72;16.65;;;;;;;3.01;100.00;99741.00;1662042;86;25772;-51
2023/12/29 06:28:47;;;;;;;26.52;15.98;;;;;;;3.04;100.00;99736.45;1662237;86;25918;-54
2023/12/29 06:31:14;;;;;;;27.98;15.55;;;;;;;3.07;100.00;99741.27;1662192;86;27338;-51
2023/12/29 06:33:44;;;;;;;27.73;15.70;;;;;;;3.11;100.00;99736.17;1590334;87;25749;-51
2023/12/29 06:36:11;;;;;;;23.95;15.28;;;;;;;3.15;100.00;99730.53;1662937;86;25411;-54
2023/12/29 06:38:38;;;;;;;25.23;15.08;;;;;;;3.18;100.00;99729.47;1639760;86;25640;-52
2023/12/29 06:41:05;;;;;;;27.87;15.63;;;;;;;3.23;100.00;99729.97;1639811;86;25508;-52
2023/12/29 06:43:31;;;;;;;26.85;14.47;;;;;;;3.26;100.00;99732.09;1639697;86;27368;-53
2023/12/29 06:45:57;;;;;;;26.70;15.80;;;;;;;3.30;100.00;99734.50;1662839;86;25614;-52
2023/12/29 06:48:23;;;;;;;26.30;15.20;;;;;;;3.33;100.00;99735.81;1662865;84;25439;-54
2023/12/29 06:50:50;;;;;;;24.12;15.98;;;;;;;3.35;100.00;99722.45;1662950;86;26463;-51
2023/12/29 06:53:16;;;;;;;26.37;15.88;;;;;;;3.38;100.00;99717.08;1639929;86;25452;-50
2023/12/29 06:55:43;;;;;;;26.37;15.83;;;;;;;3.40;100.00;99722.16;1662982;86;27516;-52
2023/12/29 06:58:09;;;;;;;27.15;15.15;;;;;;;3.41;100.00;99719.75;1639849;86;25155;-52
2023/12/29 07:00:35;;;;;;;26.73;15.15;;;;;;;3.44;100.00;99715.99;1639788;86;25418;-53
2023/12/29 07:03:02;;;;;;;24.10;14.58;;;;;;;3.49;100.00;99716.48;1662875;86;25574;-53
2023/12/29 07:05:28;;;;;;;22.07;14.40;;;;;;;3.51;100.00;99717.81;1640020;86;25511;-54
2023/12/29 07:07:54;;;;;;;24.72;14.47;;;;;;;3.55;100.00;99728.21;1639708;86;27284;-53
2023/12/29 07:10:21;;;;;;;23.42;14.23;;;;;;;3.58;100.00;99726.09;1662819;86;25460;-52
2023/12/29 07:12:47;;;;;;;23.22;13.68;;;;;;;3.61;100.00;99725.00;1662878;86;25451;-53
2023/12/29 07:15:18;;;;;;;23.67;14.47;;;;;;;3.62;100.00;99722.56;1592941;88;25704;-53
2023/12/29 07:17:41;;;;;;;26.73;14.13;;;;;;;3.64;100.00;99719.06;1643502;87;25492;-52
2023/12/29 07:20:08;;;;;;;24.65;14.63;;;;;;;3.66;100.00;99722.80;1572539;88;28201;-53
2023/12/29 07:22:35;;;;;;;24.92;15.20;;;;;;;3.67;100.00;99715.06;1644452;87;25569;-54
2023/12/29 07:25:01;;;;;;;24.35;15.20;;;;;;;3.70;100.00;99711.29;1620224;87;25469;-50
2023/12/29 07:27:27;;;;;;;22.62;13.58;;;;;;;3.75;100.00;99707.79;1639834;86;25683;-52
2023/12/29 07:29:53;;;;;;;24.55;14.73;;;;;;;3.78;100.00;99714.45;1662932;86;25426;-52
2023/12/29 07:32:20;;;;;;;27.05;15.48;;;;;;;3.82;100.00;99724.32;1618059;86;27915;-52
2023/12/29 07:34:46;;;;;;;36.83;22.93;;;;;;;3.87;100.00;99696.19;1639751;86;25501;-52
2023/12/29 07:37:13;;;;;;;25.15;15.15;;;;;;;3.93;100.00;99698.28;1618134;86;25085;-50
2023/12/29 07:39:39;;;;;;;25.20;14.53;;;;;;;4.01;100.00;99699.03;1662849;85;25684;-50
2023/12/29 07:42:06;;;;;;;24.20;15.00;;;;;;;4.05;100.00;99697.41;1662954;86;25486;-54
2023/12/29 07:44:32;;;;;;;23.40;13.83;;;;;;;4.08;100.00;99698.16;1662933;86;27654;-52
2023/12/29 07:46:58;;;;;;;20.57;13.55;;;;;;;4.11;100.00;99690.92;1662832;86;25490;-52
2023/12/29 07:49:26;;;;;;;25.35;14.43;;;;;;;4.15;100.00;99697.84;1680859;84;25428;-52
2023/12/29 07:51:53;;;;;;;23.22;13.83;;;;;;;4.20;100.00;99702.37;1689562;85;25850;-51
2023/12/29 07:54:19;;;;;;;22.95;14.07;;;;;;;4.23;100.00;99700.47;1663642;85;25439;-50
2023/12/29 07:56:45;;;;;;;22.82;13.80;;;;;;;4.26;99.96;99686.53;1617437;87;27412;-50
2023/12/29 07:59:12;;;;;;;23.75;13.78;;;;;;;4.28;99.94;99691.06;1670286;85;25460;-50
2023/12/29 08:01:39;;;;;;;23.30;13.72;;;;;;;4.31;99.76;99685.15;1670401;85;25482;-51
2023/12/29 08:04:06;;;;;;;26.00;14.07;;;;;;;4.34;99.68;99677.87;1670339;85;25599;-53
2023/12/29 08:06:34;;;;;;;25.27;14.70;;;;;;;4.38;99.57;99686.95;1670431;85;25483;-53
2023/12/29 08:09:00;;;;;;;21.27;13.53;;;;;;;4.42;99.60;99675.92;1670370;85;27459;-51
2023/12/29 08:11:27;;;;;;;22.37;14.05;;;;;;;4.46;99.34;99678.30;1670271;85;25672;-52
2023/12/29 08:13:53;;;;;;;21.95;14.13;;;;;;;4.52;99.27;99674.23;1643243;85;25425;-52
2023/12/29 08:16:19;;;;;;;23.30;14.23;;;;;;;4.54;99.05;99672.06;1670323;85;25673;-55
2023/12/29 08:18:49;;;;;;;18.55;12.73;;;;;;;4.55;98.90;99670.45;1670383;85;25417;-52
2023/12/29 08:21:19;;;;;;;22.60;13.13;;;;;;;4.59;98.83;99666.66;1670484;85;27429;-51
2023/12/29 08:23:47;;;;;;;23.62;12.63;;;;;;;4.62;98.69;99664.75;1670274;85;25424;-51
2023/12/29 08:26:14;;;;;;;22.37;12.85;;;;;;;4.62;98.58;99662.87;1643219;85;25516;-51
2023/12/29 08:28:40;;;;;;;24.15;13.03;;;;;;;4.65;98.46;99678.92;1670314;85;26328;-51
2023/12/29 08:31:10;;;;;;;25.32;15.32;;;;;;;4.67;98.41;99664.15;1670353;85;25405;-55
2023/12/29 08:33:36;;;;;;;37.00;25.70;;;;;;;4.72;98.50;99669.22;1663950;85;27482;-52
2023/12/29 08:36:04;;;;;;;20.12;13.30;;;;;;;4.79;98.36;99670.45;1641241;85;25429;-52
2023/12/29 08:38:33;;;;;;;29.30;18.07;;;;;;;4.85;98.31;99667.16;1670344;85;25512;-52
2023/12/29 08:41:00;;;;;;;19.32;11.75;;;;;;;4.92;98.02;99660.94;1670249;85;25672;-51
2023/12/29 08:43:26;;;;;;;23.22;12.00;;;;;;;5.02;98.07;99663.50;1670355;85;25445;-52
2023/12/29 08:45:54;;;;;;;20.10;11.90;;;;;;;5.16;98.21;99657.41;1670327;85;27428;-51
2023/12/29 08:48:20;;;;;;;19.37;11.50;;;;;;;5.28;97.00;99665.03;1670152;85;25807;-54
2023/12/29 08:50:47;;;;;;;19.27;11.90;;;;;;;5.30;96.23;99660.98;1689496;84;25413;-51
2023/12/29 08:53:13;;;;;;;21.23;11.83;;;;;;;5.49;97.53;99669.03;1689379;85;25600;-51
2023/12/29 08:55:39;;;;;;;18.02;11.65;;;;;;;5.73;97.29;99681.03;1689493;84;25467;-51
2023/12/29 08:58:06;;;;;;;20.88;11.33;;;;;;;5.93;96.55;99674.55;1689526;85;28128;-52
2023/12/29 09:00:32;;;;;;;18.60;11.03;;;;;;;6.14;96.14;99676.94;1663463;85;25210;-51
2023/12/29 09:02:59;;;;;;;19.35;11.08;;;;;;;6.30;94.59;99672.91;1689457;85;25494;-56
2023/12/29 09:05:26;;;;;;;18.75;11.00;;;;;;;6.42;93.89;99663.56;1689384;85;26452;-53
2023/12/29 09:07:52;;;;;;;17.50;11.35;;;;;;;6.54;92.68;99663.89;1689464;85;25158;-52
2023/12/29 09:10:19;;;;;;;20.10;11.00;;;;;;;6.73;94.11;99665.15;1689449;85;27450;-53
2023/12/29 09:12:45;;;;;;;19.57;10.75;;;;;;;6.89;92.19;99677.18;1689328;85;25645;-51
2023/12/29 09:15:11;;;;;;;17.10;10.32;;;;;;;7.01;92.40;99665.92;1689471;85;25501;-51
2023/12/29 09:17:37;;;;;;;15.93;10.40;;;;;;;7.19;90.60;99671.50;1689471;85;25619;-51
2023/12/29 09:20:06;;;;;;;17.27;10.48;;;;;;;7.38;90.87;99662.73;1689556;85;25431;-52
2023/12/29 09:22:32;;;;;;;16.25;10.28;;;;;;;7.57;90.17;99667.17;1689418;85;27349;-51
2023/12/29 09:24:58;;;;;;;15.53;9.48;;;;;;;7.64;88.56;99664.33;1689375;85;25477;-53
2023/12/29 09:27:25;;;;;;;13.25;9.18;;;;;;;7.71;88.57;99667.91;1689475;85;25493;-51
2023/12/29 09:29:51;;;;;;;17.27;9.13;;;;;;;7.68;86.49;99659.13;1689342;85;25672;-54
2023/12/29 09:32:17;;;;;;;15.58;9.68;;;;;;;7.58;86.17;99667.44;1689404;84;25428;-51
2023/12/29 09:34:44;;;;;;;14.53;9.08;;;;;;;7.65;88.38;99662.42;1670245;85;27949;-51
2023/12/29 09:37:10;;;;;;;15.13;9.90;;;;;;;7.83;86.28;99658.77;1643118;85;25564;-51
2023/12/29 09:39:36;;;;;;;11.78;9.00;;;;;;;7.94;86.67;99641.80;1670337;84;25438;-49
2023/12/29 09:42:04;;;;;;;12.98;8.30;;;;;;;8.02;84.65;99643.76;1670221;84;25564;-50
2023/12/29 09:44:31;;;;;;;13.83;8.93;;;;;;;8.07;84.37;99645.54;1670388;85;25492;-50
2023/12/29 09:47:03;;;;;;;14.30;8.80;;;;;;;8.25;85.79;99636.98;1643066;85;27489;-51
2023/12/29 09:49:39;;;;;;;12.23;8.48;;;;;;;8.50;84.17;99637.47;1670140;84;25472;-51
2023/12/29 09:52:09;;;;;;;10.43;7.80;;;;;;;8.59;83.76;99641.77;1670323;84;25439;-50
2023/12/29 09:54:37;;;;;;;14.30;8.00;;;;;;;8.80;82.96;99649.29;1669933;85;25617;-51
2023/12/29 09:57:09;;;;;;;12.60;8.05;;;;;;;9.00;82.67;99649.27;1689438;84;25518;-50
2023/12/29 09:59:36;;;;;;;12.28;7.92;;;;;;;8.90;80.57;99639.56;1689432;85;27892;-51
2023/12/29 10:02:05;;;;;;;14.65;8.38;;;;;;;8.67;80.75;99646.17;1689355;84;25605;-52
2023/12/29 10:04:32;;;;;;;15.98;11.08;;;;;;;8.47;81.16;99643.47;1689513;84;25453;-51
2023/12/29 10:07:07;;;;;;;15.45;9.73;;;;;;;8.32;81.84;99658.11;1689363;85;25674;-54
2023/12/29 10:09:34;;;;;;;12.68;8.05;;;;;;;8.23;82.15;99647.28;1689469;85;25465;-52
2023/12/29 10:12:06;;;;;;;16.93;9.20;;;;;;;8.14;81.99;99641.85;1689418;85;27346;-51
2023/12/29 10:15:08;;;;;;;13.80;8.78;;;;;;;8.04;82.77;99641.55;1665755;85;25416;-51
2023/12/29 10:17:59;;;;;;;13.28;8.30;;;;;;;7.97;82.56;99647.92;1670256;85;25169;-51
2023/12/29 10:20:49;;;;;;;12.88;8.08;;;;;;;7.91;83.40;99647.80;1642947;85;25619;-53
2023/12/29 10:23:33;;;;;;;12.88;7.72;;;;;;;7.91;83.25;99644.31;1670317;85;25623;-50
2023/12/29 10:25:59;;;;;;;11.40;8.18;;;;;;;7.91;83.63;99641.63;1643717;85;27421;-53
2023/12/29 10:28:25;;;;;;;13.88;8.53;;;;;;;7.95;83.92;99638.55;1670154;84;25456;-52
2023/12/29 10:30:52;;;;;;;10.82;8.03;;;;;;;7.97;83.92;99633.11;1670305;84;25429;-55
2023/12/29 10:33:22;;;;;;;14.43;8.13;;;;;;;8.00;83.38;99629.81;1643372;85;26313;-53
2023/12/29 10:36:03;;;;;;;11.28;7.10;;;;;;;8.03;84.12;99637.25;1643615;85;25466;-53
2023/12/29 10:38:30;;;;;;;13.18;7.75;;;;;;;8.06;83.74;99629.13;1670207;85;27407;-55
2023/12/29 10:41:16;;;;;;;13.68;7.83;;;;;;;8.09;84.11;99625.81;1670228;85;25767;-53
2023/12/29 10:43:52;;;;;;;10.55;6.70;;;;;;;8.17;84.26;99619.69;1643145;85;25532;-56
2023/12/29 10:46:18;;;;;;;10.95;6.75;;;;;;;8.25;84.60;99616.78;1670033;85;26058;-56
2023/12/29 10:48:44;;;;;;;9.65;6.42;;;;;;;8.35;84.45;99619.20;1643764;85;25546;-53
2023/12/29 10:51:10;;;;;;;7.67;5.35;;;;;;;8.43;83.40;99623.62;1663527;85;27906;-53
2023/12/29 10:53:37;;;;;;;7.62;5.30;;;;;;;8.48;82.77;99619.44;1641022;85;25956;-55
2023/12/29 10:56:04;;;;;;;8.80;5.37;;;;;;;8.53;83.46;99618.77;1663676;85;25520;-53
2023/12/29 10:58:32;;;;;;;6.55;4.70;;;;;;;8.60;82.40;99626.41;1663304;85;25625;-54
2023/12/29 11:01:02;;;;;;;5.50;4.25;;;;;;;8.63;82.54;99609.58;1664040;85;25452;-55
2023/12/29 11:03:28;;;;;;;7.90;4.25;;;;;;;8.85;82.22;99622.17;1687419;85;28013;-54
2023/12/29 11:06:02;;;;;;;7.33;4.65;;;;;;;9.36;80.23;99626.63;1687329;85;25519;-55
2023/12/29 11:08:28;;;;;;;6.67;4.05;;;;;;;9.41;79.58;99624.34;1687411;85;25424;-55
2023/12/29 11:10:55;;;;;;;8.95;4.70;;;;;;;9.41;80.34;99623.77;1687397;84;25597;-52
2023/12/29 11:13:22;;;;;;;6.83;4.30;;;;;;;9.47;81.01;99627.13;1687446;85;25510;-55
2023/12/29 11:15:48;;;;;;;8.30;4.53;;;;;;;9.54;79.40;99608.55;1687573;85;27349;-53
2023/12/29 11:18:17;;;;;;;5.83;4.00;;;;;;;9.58;79.09;99612.18;1687448;84;25570;-55
2023/12/29 11:20:44;;;;;;;6.58;3.90;;;;;;;9.54;79.06;99610.67;1663688;85;25522;-55
2023/12/29 11:23:14;;;;;;;6.60;3.92;;;;;;;9.49;77.87;99614.10;1664131;85;25761;-55
2023/12/29 11:25:49;;;;;;;7.83;4.10;;;;;;;9.45;78.57;99613.13;1664601;85;25509;-55
2023/12/29 11:28:14;;;;;;;7.03;4.15;;;;;;;9.38;78.04;99593.39;1686700;85;27946;-56